createdAt,value
2019-03-08T00:00:07.247Z,36.45
2019-03-08T00:01:07.200Z,36.25
2019-03-08T00:02:07.153Z,36.35
2019-03-08T00:03:07.105Z,36.35
2019-03-08T00:04:07.058Z,36.35
2019-03-08T00:05:07.012Z,36.45
2019-03-08T00:06:06.965Z,36.35
2019-03-08T00:07:06.916Z,36.25
2019-03-08T00:08:06.869Z,36.35
2019-03-08T00:09:08.927Z,35.97
2019-03-08T00:10:06.775Z,36.35
2019-03-08T00:11:06.726Z,36.07
2019-03-08T00:12:06.680Z,36.16
2019-03-08T00:13:06.634Z,36.16
2019-03-08T00:14:06.587Z,36.16
2019-03-08T00:15:06.538Z,36.07
2019-03-08T00:16:06.491Z,36.07
2019-03-08T00:17:06.444Z,36.35
2019-03-08T00:18:06.397Z,36.16
2019-03-08T00:19:06.349Z,36.07
2019-03-08T00:20:06.302Z,35.97
2019-03-08T00:21:06.257Z,36.16
2019-03-08T00:22:06.208Z,36.07
2019-03-08T00:23:06.175Z,35.97
2019-03-08T00:24:06.113Z,35.97
2019-03-08T00:25:06.066Z,36.07
2019-03-08T00:26:06.018Z,36.16
2019-03-08T00:27:05.971Z,36.07
2019-03-08T00:28:05.974Z,35.97
2019-03-08T00:29:05.882Z,36.07
2019-03-08T00:30:05.830Z,36.16
2019-03-08T00:31:05.782Z,36.16
2019-03-08T00:32:05.758Z,36.16
2019-03-08T00:33:05.695Z,36.07
2019-03-08T00:34:05.640Z,36.07
2019-03-08T00:35:05.593Z,36.07
2019-03-08T00:36:05.546Z,36.07
2019-03-08T00:37:05.499Z,36.07
2019-03-08T00:38:05.459Z,36.07
2019-03-08T00:39:05.404Z,36.07
2019-03-08T00:40:05.356Z,35.87
2019-03-08T00:41:05.309Z,36.07
2019-03-08T00:42:05.263Z,35.87
2019-03-08T00:43:05.216Z,35.87
2019-03-08T00:44:05.166Z,35.97
2019-03-08T00:45:05.122Z,35.97
2019-03-08T00:46:05.074Z,35.97
2019-03-08T00:47:05.026Z,36.07
2019-03-08T00:48:04.979Z,36.16
2019-03-08T00:49:04.982Z,35.77
2019-03-08T00:50:04.884Z,36.07
2019-03-08T00:51:04.836Z,35.97
2019-03-08T00:52:04.789Z,35.97
2019-03-08T00:53:04.743Z,36.25
2019-03-08T00:54:04.697Z,35.97
2019-03-08T00:55:04.646Z,36.16
2019-03-08T00:56:04.601Z,35.97
2019-03-08T00:57:04.552Z,35.97
2019-03-08T00:58:04.508Z,36.07
2019-03-08T00:59:04.458Z,36.07
2019-03-08T01:00:04.411Z,35.77
2019-03-08T01:01:04.364Z,35.97
2019-03-08T01:02:04.317Z,35.87
2019-03-08T01:03:04.273Z,36.16
2019-03-08T01:04:04.222Z,36.07
2019-03-08T01:05:04.175Z,35.77
2019-03-08T01:06:04.132Z,35.77
2019-03-08T01:07:04.081Z,35.77
2019-03-08T01:08:04.033Z,35.87
2019-03-08T01:09:03.987Z,35.87
2019-03-08T01:10:04.039Z,35.77
2019-03-08T01:11:03.890Z,35.77
2019-03-08T01:12:03.861Z,35.87
2019-03-08T01:13:03.796Z,35.87
2019-03-08T01:14:03.749Z,35.87
2019-03-08T01:15:03.701Z,35.87
2019-03-08T01:16:03.654Z,35.77
2019-03-08T01:17:03.609Z,35.77
2019-03-08T01:18:03.568Z,35.68
2019-03-08T01:19:03.512Z,35.68
2019-03-08T01:20:03.464Z,36.07
2019-03-08T01:21:03.416Z,35.87
2019-03-08T01:22:03.370Z,35.77
2019-03-08T01:23:03.322Z,36.07
2019-03-08T01:24:03.275Z,35.77
2019-03-08T01:25:03.228Z,35.77
2019-03-08T01:26:03.183Z,35.77
2019-03-08T01:27:03.134Z,35.68
2019-03-08T01:28:03.086Z,35.68
2019-03-08T01:29:03.039Z,35.77
2019-03-08T01:30:02.992Z,35.68
2019-03-08T01:31:02.996Z,35.77
2019-03-08T01:32:02.898Z,35.97
2019-03-08T01:33:02.899Z,35.87
2019-03-08T01:34:02.815Z,35.77
2019-03-08T01:35:02.754Z,35.77
2019-03-08T01:36:02.709Z,36.07
2019-03-08T01:37:02.660Z,36.07
2019-03-08T01:38:02.649Z,35.77
2019-03-08T01:39:02.569Z,35.68
2019-03-08T01:40:02.517Z,35.77
2019-03-08T01:41:02.471Z,35.77
2019-03-08T01:42:02.424Z,35.97
2019-03-08T01:43:02.375Z,35.77
2019-03-08T01:44:02.332Z,35.77
2019-03-08T01:45:03.739Z,35.68
2019-03-08T01:46:02.235Z,35.77
2019-03-08T01:47:02.186Z,35.68
2019-03-08T01:48:02.455Z,35.77
2019-03-08T01:49:02.093Z,35.68
2019-03-08T01:50:02.044Z,35.87
2019-03-08T01:51:01.996Z,35.68
2019-03-08T01:52:01.999Z,35.87
2019-03-08T01:53:01.904Z,35.77
2019-03-08T01:54:01.855Z,35.77
2019-03-08T01:55:01.858Z,35.68
2019-03-08T01:56:01.761Z,35.87
2019-03-08T01:57:01.714Z,35.68
2019-03-08T01:58:01.666Z,35.68
2019-03-08T01:59:01.618Z,35.68
2019-03-08T02:00:01.576Z,35.77
2019-03-08T02:01:01.524Z,35.87
2019-03-08T02:02:01.477Z,35.68
2019-03-08T02:03:01.429Z,35.77
2019-03-08T02:04:01.382Z,35.49
2019-03-08T02:05:01.335Z,35.58
2019-03-08T02:06:01.288Z,35.68
2019-03-08T02:07:01.240Z,35.87
2019-03-08T02:08:01.192Z,35.58
2019-03-08T02:09:01.284Z,35.77
2019-03-08T02:10:01.098Z,35.49
2019-03-08T02:11:01.201Z,35.77
2019-03-08T02:12:01.203Z,35.68
2019-03-08T02:13:01.007Z,35.68
2019-03-08T02:14:00.909Z,35.58
2019-03-08T02:15:00.862Z,35.68
2019-03-08T02:16:00.814Z,35.58
2019-03-08T02:17:00.769Z,35.68
2019-03-08T02:18:00.722Z,35.68
2019-03-08T02:19:00.671Z,35.49
2019-03-08T02:20:00.638Z,35.58
2019-03-08T02:21:06.776Z,35.49
2019-03-08T02:22:00.530Z,35.68
2019-03-08T02:23:00.482Z,35.49
2019-03-08T02:24:00.435Z,35.68
2019-03-08T02:25:00.390Z,35.58
2019-03-08T02:26:00.341Z,35.68
2019-03-08T02:27:00.293Z,35.58
2019-03-08T02:28:00.245Z,35.68
2019-03-08T02:29:00.199Z,35.68
2019-03-08T02:30:00.416Z,35.49
2019-03-08T02:31:00.104Z,35.39
2019-03-08T02:32:00.057Z,35.49
2019-03-08T02:33:00.058Z,35.49
2019-03-08T02:34:00.013Z,35.39
2019-03-08T02:34:59.914Z,35.77
2019-03-08T02:35:59.867Z,35.39
2019-03-08T02:36:59.822Z,35.49
2019-03-08T02:37:59.774Z,35.39
2019-03-08T02:39:00.044Z,35.39
2019-03-08T02:39:59.678Z,35.39
2019-03-08T02:40:59.631Z,35.39
2019-03-08T02:41:59.584Z,35.49
2019-03-08T02:42:59.535Z,35.39
2019-03-08T02:43:59.488Z,35.49
2019-03-08T02:44:59.441Z,35.39
2019-03-08T02:45:59.394Z,35.30
2019-03-08T02:46:59.346Z,35.30
2019-03-08T02:47:59.299Z,35.39
2019-03-08T02:48:59.252Z,35.20
2019-03-08T02:49:59.205Z,34.81
2019-03-08T02:50:59.158Z,35.30
2019-03-08T02:51:59.109Z,34.72
2019-03-08T02:52:59.063Z,34.91
2019-03-08T02:53:59.065Z,34.72
2019-03-08T02:54:58.967Z,34.72
2019-03-08T02:55:58.920Z,35.20
2019-03-08T02:56:58.873Z,34.62
2019-03-08T02:57:58.826Z,34.72
2019-03-08T02:58:58.778Z,34.91
2019-03-08T02:59:58.731Z,34.91
2019-03-08T03:00:58.683Z,34.81
2019-03-08T03:01:58.636Z,35.00
2019-03-08T03:02:58.904Z,34.91
2019-03-08T03:03:58.541Z,34.91
2019-03-08T03:04:58.494Z,34.72
2019-03-08T03:05:58.447Z,34.81
2019-03-08T03:06:58.399Z,34.72
2019-03-08T03:07:58.351Z,34.72
2019-03-08T03:08:58.308Z,34.81
2019-03-08T03:09:58.257Z,34.91
2019-03-08T03:10:58.209Z,34.91
2019-03-08T03:11:58.162Z,34.91
2019-03-08T03:12:58.116Z,34.91
2019-03-08T03:13:58.068Z,34.81
2019-03-08T03:14:58.020Z,35.00
2019-03-08T03:15:57.972Z,35.00
2019-03-08T03:16:57.924Z,34.81
2019-03-08T03:17:57.879Z,34.91
2019-03-08T03:18:57.831Z,34.81
2019-03-08T03:19:57.783Z,34.91
2019-03-08T03:20:57.736Z,34.91
2019-03-08T03:21:57.689Z,34.91
2019-03-08T03:22:57.640Z,35.00
2019-03-08T03:23:57.593Z,35.00
2019-03-08T03:24:57.547Z,35.00
2019-03-08T03:25:57.499Z,35.00
2019-03-08T03:26:57.451Z,35.00
2019-03-08T03:27:57.405Z,35.00
2019-03-08T03:28:57.356Z,35.10
2019-03-08T03:29:57.310Z,35.10
2019-03-08T03:30:57.267Z,34.91
2019-03-08T03:31:57.216Z,35.00
2019-03-08T03:32:57.184Z,35.10
2019-03-08T03:33:57.120Z,35.10
2019-03-08T03:34:57.072Z,35.10
2019-03-08T03:35:57.025Z,34.91
2019-03-08T03:36:56.977Z,34.91
2019-03-08T03:37:56.931Z,35.20
2019-03-08T03:38:56.882Z,35.10
2019-03-08T03:39:56.835Z,35.00
2019-03-08T03:40:56.787Z,35.10
2019-03-08T03:41:56.740Z,35.10
2019-03-08T03:42:56.692Z,35.00
2019-03-08T03:43:56.647Z,35.10
2019-03-08T03:44:56.599Z,35.10
2019-03-08T03:45:56.551Z,35.00
2019-03-08T03:46:56.503Z,35.00
2019-03-08T03:47:56.455Z,35.00
2019-03-08T03:48:56.410Z,34.91
2019-03-08T03:49:56.363Z,34.91
2019-03-08T03:50:56.314Z,35.00
2019-03-08T03:51:56.267Z,34.72
2019-03-08T03:52:56.221Z,34.81
2019-03-08T03:53:56.173Z,34.91
2019-03-08T03:54:56.124Z,35.00
2019-03-08T03:55:56.077Z,35.00
2019-03-08T03:56:56.030Z,35.10
2019-03-08T03:57:55.983Z,34.81
2019-03-08T03:58:56.043Z,34.81
2019-03-08T03:59:55.887Z,35.00
2019-03-08T04:00:55.841Z,35.00
2019-03-08T04:01:55.793Z,34.72
2019-03-08T04:02:55.746Z,34.72
2019-03-08T04:03:55.698Z,35.10
2019-03-08T04:04:55.651Z,34.81
2019-03-08T04:05:55.603Z,34.91
2019-03-08T04:06:55.555Z,34.91
2019-03-08T04:07:55.508Z,34.72
2019-03-08T04:08:55.461Z,34.81
2019-03-08T04:09:55.414Z,34.81
2019-03-08T04:10:55.366Z,34.81
2019-03-08T04:11:55.319Z,34.81
2019-03-08T04:12:55.271Z,34.81
2019-03-08T04:13:55.225Z,34.81
2019-03-08T04:14:55.208Z,34.91
2019-03-08T04:15:55.174Z,34.81
2019-03-08T04:16:55.082Z,34.62
2019-03-08T04:17:55.035Z,34.81
2019-03-08T04:18:54.987Z,34.72
2019-03-08T04:19:54.991Z,34.72
2019-03-08T04:20:54.893Z,34.72
2019-03-08T04:21:54.862Z,34.72
2019-03-08T04:22:54.797Z,34.72
2019-03-08T04:23:54.750Z,34.72
2019-03-08T04:24:54.703Z,34.72
2019-03-08T04:25:54.656Z,34.81
2019-03-08T04:26:54.607Z,34.81
2019-03-08T04:27:54.560Z,34.72
2019-03-08T04:28:54.514Z,34.62
2019-03-08T04:29:54.465Z,34.72
2019-03-08T04:30:54.417Z,34.72
2019-03-08T04:31:54.371Z,34.62
2019-03-08T04:32:54.324Z,34.81
2019-03-08T04:33:54.276Z,34.81
2019-03-08T04:34:54.230Z,34.62
2019-03-08T04:35:54.181Z,34.72
2019-03-08T04:36:54.133Z,34.72
2019-03-08T04:37:54.087Z,34.72
2019-03-08T04:38:54.039Z,34.72
2019-03-08T04:39:53.992Z,34.91
2019-03-08T04:40:53.995Z,34.81
2019-03-08T04:41:53.898Z,34.81
2019-03-08T04:42:53.849Z,34.81
2019-03-08T04:43:53.802Z,34.62
2019-03-08T04:44:53.755Z,34.72
2019-03-08T04:45:53.708Z,34.62
2019-03-08T04:46:53.659Z,34.53
2019-03-08T04:47:53.624Z,34.53
2019-03-08T04:48:53.565Z,34.72
2019-03-08T04:49:53.518Z,34.72
2019-03-08T04:50:53.473Z,34.53
2019-03-08T04:51:53.423Z,34.81
2019-03-08T04:52:53.376Z,34.62
2019-03-08T04:53:53.329Z,34.62
2019-03-08T04:54:53.281Z,34.53
2019-03-08T04:55:53.233Z,34.53
2019-03-08T04:56:53.187Z,34.62
2019-03-08T04:57:53.140Z,34.53
2019-03-08T04:58:53.092Z,34.53
2019-03-08T04:59:53.043Z,34.72
2019-03-08T05:00:53.047Z,34.81
2019-03-08T05:01:53.000Z,34.72
2019-03-08T05:02:52.902Z,34.81
2019-03-08T05:03:52.855Z,34.53
2019-03-08T05:04:52.808Z,34.53
2019-03-08T05:05:52.761Z,34.53
2019-03-08T05:06:52.711Z,34.53
2019-03-08T05:07:52.668Z,34.53
2019-03-08T05:08:52.618Z,34.43
2019-03-08T05:09:52.570Z,34.53
2019-03-08T05:10:52.523Z,34.43
2019-03-08T05:11:52.475Z,34.72
2019-03-08T05:12:52.427Z,34.62
2019-03-08T05:13:52.382Z,34.53
2019-03-08T05:14:52.333Z,34.33
2019-03-08T05:15:52.286Z,34.53
2019-03-08T05:16:52.238Z,34.72
2019-03-08T05:17:52.192Z,34.53
2019-03-08T05:18:52.143Z,34.72
2019-03-08T05:19:52.096Z,34.43
2019-03-08T05:20:52.049Z,34.23
2019-03-08T05:21:52.002Z,34.23
2019-03-08T05:22:51.954Z,34.43
2019-03-08T05:23:51.957Z,34.53
2019-03-08T05:24:51.859Z,34.72
2019-03-08T05:25:51.812Z,34.43
2019-03-08T05:26:51.764Z,34.33
2019-03-08T05:27:51.717Z,34.33
2019-03-08T05:28:51.670Z,34.43
2019-03-08T05:29:51.623Z,34.53
2019-03-08T05:30:51.574Z,34.53
2019-03-08T05:31:51.527Z,34.23
2019-03-08T05:32:51.484Z,34.33
2019-03-08T05:33:51.440Z,34.43
2019-03-08T05:34:51.385Z,34.33
2019-03-08T05:35:51.337Z,34.23
2019-03-08T05:36:51.290Z,34.23
2019-03-08T05:37:51.244Z,34.23
2019-03-08T05:38:51.195Z,34.33
2019-03-08T05:39:51.148Z,34.33
2019-03-08T05:40:51.100Z,34.23
2019-03-08T05:41:51.054Z,34.23
2019-03-08T05:42:51.007Z,34.05
2019-03-08T05:43:50.958Z,34.05
2019-03-08T05:44:50.920Z,34.33
2019-03-08T05:45:50.865Z,34.14
2019-03-08T05:46:50.817Z,34.23
2019-03-08T05:47:50.769Z,34.33
2019-03-08T05:48:50.720Z,34.14
2019-03-08T05:49:50.674Z,34.23
2019-03-08T05:50:50.628Z,34.05
2019-03-08T05:51:50.579Z,34.33
2019-03-08T05:52:50.533Z,34.14
2019-03-08T05:53:50.485Z,34.23
2019-03-08T05:54:50.437Z,34.43
2019-03-08T05:55:50.389Z,34.43
2019-03-08T05:56:50.342Z,34.33
2019-03-08T05:57:50.295Z,34.33
2019-03-08T05:58:50.247Z,34.33
2019-03-08T05:59:50.199Z,34.43
2019-03-08T06:00:50.152Z,34.23
2019-03-08T06:01:50.105Z,34.33
2019-03-08T06:02:50.057Z,34.33
2019-03-08T06:03:50.010Z,34.23
2019-03-08T06:04:50.013Z,34.23
2019-03-08T06:05:50.017Z,34.23
2019-03-08T06:06:49.868Z,33.75
2019-03-08T06:07:49.820Z,33.95
2019-03-08T06:08:49.773Z,33.95
2019-03-08T06:09:49.731Z,33.85
2019-03-08T06:10:49.678Z,33.85
2019-03-08T06:11:49.630Z,33.75
2019-03-08T06:12:49.583Z,33.95
2019-03-08T06:13:49.556Z,33.85
2019-03-08T06:14:49.488Z,34.14
2019-03-08T06:15:49.440Z,34.05
2019-03-08T06:16:49.394Z,34.14
2019-03-08T06:17:49.347Z,33.75
2019-03-08T06:18:49.299Z,33.95
2019-03-08T06:19:49.252Z,33.95
2019-03-08T06:20:49.205Z,33.95
2019-03-08T06:21:49.161Z,33.95
2019-03-08T06:22:49.108Z,33.85
2019-03-08T06:23:49.062Z,33.66
2019-03-08T06:24:49.064Z,33.85
2019-03-08T06:25:49.068Z,33.95
2019-03-08T06:26:48.919Z,33.85
2019-03-08T06:27:48.873Z,33.75
2019-03-08T06:28:48.825Z,33.85
2019-03-08T06:29:48.778Z,33.95
2019-03-08T06:30:48.731Z,33.95
2019-03-08T06:31:48.683Z,33.75
2019-03-08T06:32:48.636Z,33.66
2019-03-08T06:33:48.590Z,33.56
2019-03-08T06:34:48.541Z,33.85
2019-03-08T06:35:48.494Z,33.85
2019-03-08T06:36:48.447Z,33.85
2019-03-08T06:37:48.406Z,33.85
2019-03-08T06:38:48.351Z,33.66
2019-03-08T06:39:48.306Z,33.66
2019-03-08T06:40:48.257Z,33.75
2019-03-08T06:41:48.210Z,33.85
2019-03-08T06:42:48.162Z,33.87
2019-03-08T06:43:48.114Z,33.85
2019-03-08T06:44:48.066Z,33.75
2019-03-08T06:45:48.020Z,33.75
2019-03-08T06:46:48.022Z,33.75
2019-03-08T06:47:47.926Z,33.75
2019-03-08T06:48:47.879Z,34.05
2019-03-08T06:49:47.831Z,33.95
2019-03-08T06:50:47.789Z,34.05
2019-03-08T06:51:47.736Z,33.95
2019-03-08T06:52:47.688Z,33.95
2019-03-08T06:53:47.641Z,33.85
2019-03-08T06:54:47.594Z,33.56
2019-03-08T06:55:47.551Z,33.66
2019-03-08T06:56:47.499Z,33.66
2019-03-08T06:57:47.452Z,33.66
2019-03-08T06:58:47.404Z,33.85
2019-03-08T06:59:47.357Z,33.85
2019-03-08T07:00:47.310Z,33.47
2019-03-08T07:01:47.580Z,33.56
2019-03-08T07:02:47.215Z,33.66
2019-03-08T07:03:47.168Z,33.56
2019-03-08T07:04:47.120Z,33.56
2019-03-08T07:05:47.074Z,33.56
2019-03-08T07:06:47.025Z,33.37
2019-03-08T07:07:46.978Z,33.85
2019-03-08T07:08:46.932Z,33.75
2019-03-08T07:09:46.885Z,33.75
2019-03-08T07:10:46.836Z,33.37
2019-03-08T07:11:46.789Z,33.56
2019-03-08T07:12:46.745Z,33.47
2019-03-08T07:13:46.694Z,33.37
2019-03-08T07:14:46.647Z,33.39
2019-03-08T07:15:46.600Z,33.47
2019-03-08T07:16:46.554Z,33.37
2019-03-08T07:17:46.506Z,33.48
2019-03-08T07:18:46.461Z,33.58
2019-03-08T07:19:46.411Z,33.37
2019-03-08T07:20:46.369Z,33.47
2019-03-08T07:21:46.316Z,33.48
2019-03-08T07:22:46.269Z,33.48
2019-03-08T07:23:46.222Z,33.37
2019-03-08T07:24:46.175Z,33.37
2019-03-08T07:25:51.569Z,33.48
2019-03-08T07:26:46.079Z,33.29
2019-03-08T07:27:46.032Z,33.39
2019-03-08T07:28:45.985Z,33.29
2019-03-08T07:29:45.989Z,33.39
2019-03-08T07:30:45.894Z,33.48
2019-03-08T07:31:45.843Z,33.39
2019-03-08T07:32:45.796Z,33.58
2019-03-08T07:33:52.943Z,33.39
2019-03-08T07:34:45.701Z,33.48
2019-03-08T07:35:45.658Z,33.39
2019-03-08T07:36:45.608Z,33.39
2019-03-08T07:37:45.560Z,33.48
2019-03-08T07:38:45.511Z,33.58
2019-03-08T07:39:45.465Z,33.20
2019-03-08T07:40:45.418Z,33.48
2019-03-08T07:41:45.371Z,33.20
2019-03-08T07:42:45.327Z,33.10
2019-03-08T07:43:45.278Z,33.20
2019-03-08T07:44:45.229Z,33.10
2019-03-08T07:45:45.182Z,33.39
2019-03-08T07:46:45.134Z,33.67
2019-03-08T07:47:45.087Z,33.20
2019-03-08T07:48:45.052Z,33.20
2019-03-08T07:49:45.045Z,33.29
2019-03-08T07:50:46.896Z,33.67
2019-03-08T07:51:44.898Z,33.20
2019-03-08T07:52:44.852Z,33.58
2019-03-08T07:53:44.804Z,33.67
2019-03-08T07:54:52.704Z,33.58
2019-03-08T07:55:46.443Z,33.20
2019-03-08T07:56:44.662Z,33.20
2019-03-08T07:57:44.616Z,33.29
2019-03-08T07:58:44.567Z,33.29
2019-03-08T07:59:53.212Z,33.10
2019-03-08T08:00:44.473Z,33.20
2019-03-08T08:01:44.427Z,33.58
2019-03-08T08:02:44.378Z,33.20
2019-03-08T08:03:44.332Z,33.20
2019-03-08T08:04:44.286Z,33.20
2019-03-08T08:05:44.237Z,33.48
2019-03-08T08:06:44.192Z,33.20
2019-03-08T08:07:44.144Z,33.10
2019-03-08T08:08:51.367Z,33.20
2019-03-08T08:09:44.049Z,33.20
2019-03-08T08:10:44.050Z,33.10
2019-03-08T08:11:43.954Z,33.20
2019-03-08T08:12:43.906Z,33.10
2019-03-08T08:13:43.859Z,33.10
2019-03-08T08:14:43.811Z,33.20
2019-03-08T08:15:45.460Z,33.10
2019-03-08T08:16:43.717Z,33.20
2019-03-08T08:17:43.671Z,32.90
2019-03-08T08:18:43.622Z,33.00
2019-03-08T08:19:43.576Z,33.29
2019-03-08T08:20:43.529Z,33.29
2019-03-08T08:21:43.481Z,33.10
2019-03-08T08:22:43.434Z,33.29
2019-03-08T08:23:43.386Z,32.81
2019-03-08T08:24:43.340Z,32.81
2019-03-08T08:25:43.292Z,32.90
2019-03-08T08:26:43.243Z,32.52
2019-03-08T08:27:43.198Z,32.52
2019-03-08T08:28:49.638Z,32.52
2019-03-08T08:29:43.104Z,32.62
2019-03-08T08:30:43.056Z,32.71
2019-03-08T08:31:43.015Z,32.73
2019-03-08T08:32:43.015Z,32.92
2019-03-08T08:33:42.967Z,32.52
2019-03-08T08:34:42.868Z,32.64
2019-03-08T08:35:42.820Z,32.64
2019-03-08T08:36:42.773Z,32.54
2019-03-08T08:37:42.727Z,32.64
2019-03-08T08:38:42.677Z,32.43
2019-03-08T08:39:42.631Z,32.52
2019-03-08T08:40:42.583Z,32.52
2019-03-08T08:41:42.547Z,32.62
2019-03-08T08:42:42.489Z,32.54
2019-03-08T08:43:42.443Z,33.12
2019-03-08T08:44:42.395Z,32.52
2019-03-08T08:45:42.351Z,32.81
2019-03-08T08:46:42.300Z,32.81
2019-03-08T08:47:42.254Z,32.52
2019-03-08T08:48:42.208Z,32.52
2019-03-08T08:49:42.160Z,32.54
2019-03-08T08:50:42.114Z,32.54
2019-03-08T08:51:42.066Z,32.71
2019-03-08T08:52:42.017Z,32.71
2019-03-08T08:53:41.971Z,32.81
2019-03-08T08:54:42.023Z,32.81
2019-03-08T08:55:43.613Z,32.71
2019-03-08T08:56:41.828Z,32.62
2019-03-08T08:57:41.782Z,32.81
2019-03-08T08:58:41.734Z,32.81
2019-03-08T08:59:41.688Z,32.62
2019-03-08T09:00:41.641Z,32.62
2019-03-08T09:01:41.596Z,32.52
2019-03-08T09:02:41.545Z,32.62
2019-03-08T09:03:41.499Z,32.62
2019-03-08T09:04:41.450Z,32.62
2019-03-08T09:05:41.420Z,32.62
2019-03-08T09:06:41.357Z,32.81
2019-03-08T09:07:41.310Z,32.90
2019-03-08T09:08:41.263Z,32.71
2019-03-08T09:09:41.216Z,32.62
2019-03-08T09:10:41.170Z,32.81
2019-03-08T09:11:44.573Z,33.00
2019-03-08T09:12:41.073Z,32.43
2019-03-08T09:13:41.028Z,32.54
2019-03-08T09:14:40.979Z,32.25
2019-03-08T09:15:40.932Z,32.25
2019-03-08T09:16:40.887Z,32.34
2019-03-08T09:17:40.838Z,32.44
2019-03-08T09:18:40.791Z,32.43
2019-03-08T09:19:40.743Z,32.25
2019-03-08T09:20:40.697Z,32.33
2019-03-08T09:21:40.650Z,32.25
2019-03-08T09:22:40.602Z,32.34
2019-03-08T09:23:40.555Z,32.25
2019-03-08T09:24:40.508Z,32.25
2019-03-08T09:25:40.461Z,32.25
2019-03-08T09:26:40.415Z,32.25
2019-03-08T09:27:40.366Z,32.25
2019-03-08T09:28:40.319Z,32.34
2019-03-08T09:29:41.457Z,32.25
2019-03-08T09:30:40.224Z,32.44
2019-03-08T09:31:40.177Z,32.44
2019-03-08T09:32:40.131Z,32.34
2019-03-08T09:33:40.092Z,32.62
2019-03-08T09:34:40.036Z,32.62
2019-03-08T09:35:39.991Z,32.64
2019-03-08T09:36:40.042Z,32.62
2019-03-08T09:37:39.949Z,32.52
2019-03-08T09:38:39.848Z,32.81
2019-03-08T09:39:39.801Z,32.52
2019-03-08T09:40:39.754Z,32.90
2019-03-08T09:41:39.710Z,33.21
2019-03-08T09:42:39.659Z,32.81
2019-03-08T09:43:39.612Z,32.90
2019-03-08T09:44:39.565Z,32.71
2019-03-08T09:45:39.525Z,32.81
2019-03-08T09:46:39.470Z,32.62
2019-03-08T09:47:39.425Z,32.81
2019-03-08T09:48:39.422Z,32.62
2019-03-08T09:49:39.335Z,32.90
2019-03-08T09:50:39.281Z,32.71
2019-03-08T09:51:39.233Z,33.10
2019-03-08T09:52:39.190Z,32.71
2019-03-08T09:53:39.141Z,32.71
2019-03-08T09:54:39.093Z,32.71
2019-03-08T09:55:39.048Z,32.81
2019-03-08T09:56:38.998Z,32.71
2019-03-08T09:57:38.952Z,32.71
2019-03-08T09:58:39.003Z,32.71
2019-03-08T09:59:38.858Z,32.71
2019-03-08T10:00:38.810Z,32.71
2019-03-08T10:01:38.764Z,32.81
2019-03-08T10:02:38.716Z,32.71
2019-03-08T10:03:38.668Z,32.82
2019-03-08T10:04:38.622Z,32.71
2019-03-08T10:05:38.575Z,33.00
2019-03-08T10:06:38.819Z,32.71
2019-03-08T10:07:38.480Z,33.00
2019-03-08T10:08:38.434Z,32.90
2019-03-08T10:09:38.387Z,32.71
2019-03-08T10:10:38.342Z,32.81
2019-03-08T10:11:38.292Z,32.81
2019-03-08T10:12:38.244Z,32.90
2019-03-08T10:13:38.198Z,32.81
2019-03-08T10:14:38.151Z,32.71
2019-03-08T10:15:38.112Z,32.81
2019-03-08T10:16:38.056Z,32.90
2019-03-08T10:17:38.009Z,32.81
2019-03-08T10:18:37.961Z,32.71
2019-03-08T10:19:37.916Z,32.71
2019-03-08T10:20:37.868Z,32.52
2019-03-08T10:21:37.821Z,32.81
2019-03-08T10:22:37.772Z,32.82
2019-03-08T10:23:37.726Z,32.62
2019-03-08T10:24:37.679Z,32.62
2019-03-08T10:25:37.643Z,32.62
2019-03-08T10:26:37.585Z,32.62
2019-03-08T10:27:38.332Z,32.62
2019-03-08T10:28:37.490Z,32.62
2019-03-08T10:29:37.445Z,32.71
2019-03-08T10:30:37.395Z,32.90
2019-03-08T10:31:37.349Z,32.71
2019-03-08T10:32:37.804Z,32.71
2019-03-08T10:33:45.985Z,32.81
2019-03-08T10:34:37.207Z,32.43
2019-03-08T10:35:37.160Z,32.64
2019-03-08T10:36:37.113Z,32.64
2019-03-08T10:37:37.070Z,32.34
2019-03-08T10:38:37.018Z,32.44
2019-03-08T10:39:37.071Z,32.54
2019-03-08T10:40:36.924Z,32.34
2019-03-08T10:41:36.878Z,32.25
2019-03-08T10:42:36.830Z,32.34
2019-03-08T10:43:36.783Z,32.15
2019-03-08T10:44:36.736Z,32.15
2019-03-08T10:45:36.689Z,32.06
2019-03-08T10:46:36.642Z,32.06
2019-03-08T10:47:36.594Z,32.25
2019-03-08T10:48:36.547Z,32.15
2019-03-08T10:49:36.500Z,32.06
2019-03-08T10:50:36.452Z,32.15
2019-03-08T10:51:36.406Z,32.06
2019-03-08T10:52:36.360Z,31.96
2019-03-08T10:53:36.312Z,32.15
2019-03-08T10:54:36.265Z,31.96
2019-03-08T10:55:36.219Z,32.06
2019-03-08T10:56:36.170Z,32.25
2019-03-08T10:57:36.125Z,31.87
2019-03-08T10:58:36.116Z,31.98
2019-03-08T10:59:36.031Z,31.88
2019-03-08T11:00:35.982Z,31.77
2019-03-08T11:01:36.041Z,31.96
2019-03-08T11:02:35.887Z,32.15
2019-03-08T11:03:35.840Z,32.06
2019-03-08T11:04:35.794Z,32.06
2019-03-08T11:05:35.750Z,32.25
2019-03-08T11:06:35.703Z,32.34
2019-03-08T11:07:35.652Z,32.44
2019-03-08T11:08:35.606Z,32.34
2019-03-08T11:09:35.561Z,32.43
2019-03-08T11:10:35.511Z,32.44
2019-03-08T11:11:35.462Z,32.15
2019-03-08T11:12:35.418Z,32.34
2019-03-08T11:13:42.987Z,32.34
2019-03-08T11:14:35.323Z,32.25
2019-03-08T11:15:35.275Z,32.34
2019-03-08T11:16:35.229Z,32.34
2019-03-08T11:17:35.185Z,32.25
2019-03-08T11:18:35.134Z,32.54
2019-03-08T11:19:35.086Z,32.25
2019-03-08T11:20:35.040Z,32.52
2019-03-08T11:21:34.992Z,32.44
2019-03-08T11:22:34.997Z,32.34
2019-03-08T11:23:34.898Z,32.64
2019-03-08T11:24:34.851Z,32.52
2019-03-08T11:25:35.383Z,32.64
2019-03-08T11:26:34.757Z,32.64
2019-03-08T11:27:34.710Z,32.64
2019-03-08T11:28:34.663Z,32.64
2019-03-08T11:29:34.615Z,32.62
2019-03-08T11:30:34.569Z,32.62
2019-03-08T11:31:34.998Z,32.62
2019-03-08T11:32:34.474Z,32.64
2019-03-08T11:33:34.429Z,32.71
2019-03-08T11:34:34.382Z,32.64
2019-03-08T11:35:34.333Z,32.43
2019-03-08T11:36:34.287Z,32.52
2019-03-08T11:37:34.239Z,32.73
2019-03-08T11:38:34.194Z,32.71
2019-03-08T11:39:34.144Z,32.82
2019-03-08T11:40:34.098Z,32.62
2019-03-08T11:41:34.052Z,32.73
2019-03-08T11:42:34.003Z,32.81
2019-03-08T11:43:34.106Z,32.64
2019-03-08T11:44:33.910Z,32.64
2019-03-08T11:45:33.862Z,32.81
2019-03-08T11:46:33.815Z,32.73
2019-03-08T11:47:33.767Z,32.64
2019-03-08T11:48:33.721Z,32.64
2019-03-08T11:49:33.674Z,32.64
2019-03-08T11:50:33.628Z,32.64
2019-03-08T11:51:33.579Z,32.64
2019-03-08T11:52:33.531Z,32.64
2019-03-08T11:53:33.486Z,32.54
2019-03-08T11:54:40.489Z,32.73
2019-03-08T11:55:33.390Z,32.64
2019-03-08T11:56:35.012Z,32.64
2019-03-08T11:57:33.296Z,32.64
2019-03-08T11:58:33.249Z,32.54
2019-03-08T11:59:33.202Z,32.54
2019-03-08T12:00:33.155Z,32.44
2019-03-08T12:01:33.208Z,32.34
2019-03-08T12:02:37.774Z,32.54
2019-03-08T12:03:33.015Z,32.34
2019-03-08T12:04:33.017Z,32.34
2019-03-08T12:05:32.919Z,32.25
2019-03-08T12:06:34.817Z,32.34
2019-03-08T12:07:32.825Z,32.44
2019-03-08T12:08:32.778Z,32.34
2019-03-08T12:09:32.731Z,32.25
2019-03-08T12:10:32.683Z,32.34
2019-03-08T12:11:32.636Z,32.34
2019-03-08T12:12:32.588Z,32.44
2019-03-08T12:13:32.542Z,32.34
2019-03-08T12:14:32.495Z,32.54
2019-03-08T12:15:32.449Z,32.34
2019-03-08T12:16:32.401Z,32.44
2019-03-08T12:17:32.358Z,32.34
2019-03-08T12:18:34.189Z,32.44
2019-03-08T12:19:32.259Z,32.54
2019-03-08T12:20:32.213Z,32.25
2019-03-08T12:21:32.168Z,32.34
2019-03-08T12:22:32.119Z,32.25
2019-03-08T12:23:32.073Z,32.44
2019-03-08T12:24:32.025Z,32.34
2019-03-08T12:25:31.980Z,32.25
2019-03-08T12:26:31.930Z,32.06
2019-03-08T12:27:31.885Z,31.96
2019-03-08T12:28:31.835Z,32.07
2019-03-08T12:29:31.789Z,31.98
2019-03-08T12:30:31.746Z,32.17
2019-03-08T12:31:31.695Z,31.88
2019-03-08T12:32:31.649Z,31.88
2019-03-08T12:33:31.601Z,31.88
2019-03-08T12:34:31.553Z,31.98
2019-03-08T12:35:31.507Z,32.07
2019-03-08T12:36:31.459Z,31.98
2019-03-08T12:37:31.413Z,31.88
2019-03-08T12:38:31.368Z,31.88
2019-03-08T12:39:31.318Z,31.88
2019-03-08T12:40:31.271Z,31.59
2019-03-08T12:41:31.225Z,31.69
2019-03-08T12:42:31.214Z,31.98
2019-03-08T12:43:31.129Z,31.78
2019-03-08T12:44:31.083Z,31.98
2019-03-08T12:45:31.037Z,31.67
2019-03-08T12:46:31.039Z,32.15
2019-03-08T12:47:30.942Z,32.15
2019-03-08T12:48:30.894Z,32.15
2019-03-08T12:49:30.865Z,32.34
2019-03-08T12:50:30.801Z,32.34
2019-03-08T12:51:30.753Z,32.34